sensor_id;sensor_type;location;lat;lon;timestamp;temperature;humidity
12845;DHT22;68700;48.534;9.196;2024-03-25T00:01:19;4.50;1.00
12845;DHT22;68700;48.534;9.196;2024-03-25T00:04:41;4.50;1.00
12845;DHT22;68700;48.534;9.196;2024-03-25T00:08:05;4.50;1.00
12845;DHT22;68700;48.534;9.196;2024-03-25T00:11:27;4.40;1.00
12845;DHT22;68700;48.534;9.196;2024-03-25T00:14:49;4.40;1.00
12845;DHT22;68700;48.534;9.196;2024-03-25T00:18:10;4.40;1.00
12845;DHT22;68700;48.534;9.196;2024-03-25T00:21:32;4.30;1.00
12845;DHT22;68700;48.534;9.196;2024-03-25T00:24:55;4.40;1.00
12845;DHT22;68700;48.534;9.196;2024-03-25T00:28:16;4.30;1.00
12845;DHT22;68700;48.534;9.196;2024-03-25T00:31:39;4.30;1.00
12845;DHT22;68700;48.534;9.196;2024-03-25T00:35:01;4.30;1.00
12845;DHT22;68700;48.534;9.196;2024-03-25T00:38:22;4.30;1.00
12845;DHT22;68700;48.534;9.196;2024-03-25T00:41:45;4.30;1.00
12845;DHT22;68700;48.534;9.196;2024-03-25T00:45:07;4.30;1.00
12845;DHT22;68700;48.534;9.196;2024-03-25T00:48:29;4.30;1.00
12845;DHT22;68700;48.534;9.196;2024-03-25T00:51:49;4.20;1.00
12845;DHT22;68700;48.534;9.196;2024-03-25T00:55:11;4.20;1.00
12845;DHT22;68700;48.534;9.196;2024-03-25T00:58:34;4.10;1.00
12845;DHT22;68700;48.534;9.196;2024-03-25T01:01:56;4.10;1.00
12845;DHT22;68700;48.534;9.196;2024-03-25T01:05:18;4.10;1.00
12845;DHT22;68700;48.534;9.196;2024-03-25T01:08:39;4.10;1.00
12845;DHT22;68700;48.534;9.196;2024-03-25T01:12:00;4.10;1.00
12845;DHT22;68700;48.534;9.196;2024-03-25T01:15:23;4.00;1.00
12845;DHT22;68700;48.534;9.196;2024-03-25T01:18:44;4.10;1.00
12845;DHT22;68700;48.534;9.196;2024-03-25T01:22:06;4.10;1.00
12845;DHT22;68700;48.534;9.196;2024-03-25T01:25:28;4.10;1.00
12845;DHT22;68700;48.534;9.196;2024-03-25T01:28:50;4.10;1.00
12845;DHT22;68700;48.534;9.196;2024-03-25T01:32:12;4.20;1.00
12845;DHT22;68700;48.534;9.196;2024-03-25T01:35:34;4.20;1.00
12845;DHT22;68700;48.534;9.196;2024-03-25T01:38:56;4.20;1.00
12845;DHT22;68700;48.534;9.196;2024-03-25T01:42:16;4.20;1.00
12845;DHT22;68700;48.534;9.196;2024-03-25T01:45:38;4.20;1.00
12845;DHT22;68700;48.534;9.196;2024-03-25T01:49:01;4.20;1.00
12845;DHT22;68700;48.534;9.196;2024-03-25T01:52:23;4.20;1.00
12845;DHT22;68700;48.534;9.196;2024-03-25T01:55:46;4.20;1.00
12845;DHT22;68700;48.534;9.196;2024-03-25T01:59:09;4.20;1.00
12845;DHT22;68700;48.534;9.196;2024-03-25T02:02:32;4.20;1.00
12845;DHT22;68700;48.534;9.196;2024-03-25T02:05:58;4.10;1.00
12845;DHT22;68700;48.534;9.196;2024-03-25T02:09:21;4.20;1.00
12845;DHT22;68700;48.534;9.196;2024-03-25T02:12:44;4.20;1.00
12845;DHT22;68700;48.534;9.196;2024-03-25T02:16:06;4.20;1.00
12845;DHT22;68700;48.534;9.196;2024-03-25T02:19:28;4.20;1.00
12845;DHT22;68700;48.534;9.196;2024-03-25T02:22:52;4.20;1.00
12845;DHT22;68700;48.534;9.196;2024-03-25T02:26:15;4.20;1.00
12845;DHT22;68700;48.534;9.196;2024-03-25T02:29:36;4.20;1.00
12845;DHT22;68700;48.534;9.196;2024-03-25T02:32:58;4.20;1.00
12845;DHT22;68700;48.534;9.196;2024-03-25T02:36:18;4.20;1.00
12845;DHT22;68700;48.534;9.196;2024-03-25T02:39:41;4.20;1.00
12845;DHT22;68700;48.534;9.196;2024-03-25T02:43:03;4.20;1.00
12845;DHT22;68700;48.534;9.196;2024-03-25T02:46:27;4.10;1.00
12845;DHT22;68700;48.534;9.196;2024-03-25T02:49:49;4.10;1.00
12845;DHT22;68700;48.534;9.196;2024-03-25T02:53:10;4.10;1.00
12845;DHT22;68700;48.534;9.196;2024-03-25T02:56:33;4.20;1.00
12845;DHT22;68700;48.534;9.196;2024-03-25T02:59:55;4.20;1.00
12845;DHT22;68700;48.534;9.196;2024-03-25T03:03:17;4.10;1.00
12845;DHT22;68700;48.534;9.196;2024-03-25T03:06:39;4.10;1.00
12845;DHT22;68700;48.534;9.196;2024-03-25T03:10:01;4.10;1.00
12845;DHT22;68700;48.534;9.196;2024-03-25T03:13:23;4.20;1.00
12845;DHT22;68700;48.534;9.196;2024-03-25T03:16:46;4.10;1.00
12845;DHT22;68700;48.534;9.196;2024-03-25T03:20:08;4.10;1.00
12845;DHT22;68700;48.534;9.196;2024-03-25T03:23:30;4.10;1.00
12845;DHT22;68700;48.534;9.196;2024-03-25T03:26:52;4.10;1.00
12845;DHT22;68700;48.534;9.196;2024-03-25T03:30:13;4.00;1.00
12845;DHT22;68700;48.534;9.196;2024-03-25T03:33:37;4.00;1.00
12845;DHT22;68700;48.534;9.196;2024-03-25T03:36:58;4.00;1.00
12845;DHT22;68700;48.534;9.196;2024-03-25T03:40:20;4.00;1.00
12845;DHT22;68700;48.534;9.196;2024-03-25T03:43:41;4.00;1.00
12845;DHT22;68700;48.534;9.196;2024-03-25T03:47:03;4.00;1.00
12845;DHT22;68700;48.534;9.196;2024-03-25T03:50:26;4.00;1.00
12845;DHT22;68700;48.534;9.196;2024-03-25T03:53:47;3.90;1.00
12845;DHT22;68700;48.534;9.196;2024-03-25T03:57:09;3.90;1.00
12845;DHT22;68700;48.534;9.196;2024-03-25T04:00:33;3.90;1.00
12845;DHT22;68700;48.534;9.196;2024-03-25T04:03:55;3.90;1.00
12845;DHT22;68700;48.534;9.196;2024-03-25T04:07:18;4.00;1.00
12845;DHT22;68700;48.534;9.196;2024-03-25T04:10:39;4.00;1.00
12845;DHT22;68700;48.534;9.196;2024-03-25T04:14:01;3.90;1.00
12845;DHT22;68700;48.534;9.196;2024-03-25T04:17:23;4.00;1.00
12845;DHT22;68700;48.534;9.196;2024-03-25T04:20:44;4.00;1.00
12845;DHT22;68700;48.534;9.196;2024-03-25T04:24:07;3.90;1.00
12845;DHT22;68700;48.534;9.196;2024-03-25T04:27:29;3.90;1.00
12845;DHT22;68700;48.534;9.196;2024-03-25T04:30:53;3.90;1.00
12845;DHT22;68700;48.534;9.196;2024-03-25T04:34:15;3.90;1.00
12845;DHT22;68700;48.534;9.196;2024-03-25T04:37:37;3.80;1.00
12845;DHT22;68700;48.534;9.196;2024-03-25T04:40:59;3.80;1.00
12845;DHT22;68700;48.534;9.196;2024-03-25T04:44:20;3.80;1.00
12845;DHT22;68700;48.534;9.196;2024-03-25T04:47:41;3.70;1.00
12845;DHT22;68700;48.534;9.196;2024-03-25T04:51:02;3.60;1.00
12845;DHT22;68700;48.534;9.196;2024-03-25T04:54:22;3.60;1.00
12845;DHT22;68700;48.534;9.196;2024-03-25T04:57:45;3.60;1.00
12845;DHT22;68700;48.534;9.196;2024-03-25T05:01:05;3.70;1.00
12845;DHT22;68700;48.534;9.196;2024-03-25T05:04:26;3.70;1.00
12845;DHT22;68700;48.534;9.196;2024-03-25T05:07:47;3.70;1.00
12845;DHT22;68700;48.534;9.196;2024-03-25T05:11:08;3.70;1.00
12845;DHT22;68700;48.534;9.196;2024-03-25T05:14:30;3.80;1.00
12845;DHT22;68700;48.534;9.196;2024-03-25T05:17:51;3.70;1.00
12845;DHT22;68700;48.534;9.196;2024-03-25T05:21:12;3.80;1.00
12845;DHT22;68700;48.534;9.196;2024-03-25T05:24:33;3.80;1.00
12845;DHT22;68700;48.534;9.196;2024-03-25T05:27:54;3.70;1.00
12845;DHT22;68700;48.534;9.196;2024-03-25T05:31:16;3.80;1.00
12845;DHT22;68700;48.534;9.196;2024-03-25T05:34:37;3.80;1.00
12845;DHT22;68700;48.534;9.196;2024-03-25T05:37:58;3.80;1.00
12845;DHT22;68700;48.534;9.196;2024-03-25T05:41:19;3.80;1.00
12845;DHT22;68700;48.534;9.196;2024-03-25T05:44:40;3.70;1.00
12845;DHT22;68700;48.534;9.196;2024-03-25T05:48:02;3.80;1.00
12845;DHT22;68700;48.534;9.196;2024-03-25T05:51:23;3.70;1.00
12845;DHT22;68700;48.534;9.196;2024-03-25T05:54:44;3.70;1.00
12845;DHT22;68700;48.534;9.196;2024-03-25T05:58:05;3.80;1.00
12845;DHT22;68700;48.534;9.196;2024-03-25T06:01:27;3.90;1.00
12845;DHT22;68700;48.534;9.196;2024-03-25T06:04:49;4.00;1.00
12845;DHT22;68700;48.534;9.196;2024-03-25T06:08:10;4.10;1.00
12845;DHT22;68700;48.534;9.196;2024-03-25T06:11:31;4.10;1.00
12845;DHT22;68700;48.534;9.196;2024-03-25T06:14:52;4.20;1.00
12845;DHT22;68700;48.534;9.196;2024-03-25T06:18:13;4.50;1.00
12845;DHT22;68700;48.534;9.196;2024-03-25T06:21:35;4.70;1.00
12845;DHT22;68700;48.534;9.196;2024-03-25T06:24:56;4.90;1.00
12845;DHT22;68700;48.534;9.196;2024-03-25T06:28:17;5.10;1.00
12845;DHT22;68700;48.534;9.196;2024-03-25T06:31:38;5.30;1.00
12845;DHT22;68700;48.534;9.196;2024-03-25T06:35:17;5.40;1.00
12845;DHT22;68700;48.534;9.196;2024-03-25T06:38:39;5.30;1.00
12845;DHT22;68700;48.534;9.196;2024-03-25T06:42:00;5.50;1.00
12845;DHT22;68700;48.534;9.196;2024-03-25T06:45:21;5.70;1.00
12845;DHT22;68700;48.534;9.196;2024-03-25T06:48:42;5.60;1.00
12845;DHT22;68700;48.534;9.196;2024-03-25T06:52:03;5.60;1.00
12845;DHT22;68700;48.534;9.196;2024-03-25T06:55:25;5.60;1.00
12845;DHT22;68700;48.534;9.196;2024-03-25T06:58:46;5.70;1.00
12845;DHT22;68700;48.534;9.196;2024-03-25T07:02:07;5.70;1.00
12845;DHT22;68700;48.534;9.196;2024-03-25T07:05:28;5.80;1.00
12845;DHT22;68700;48.534;9.196;2024-03-25T07:08:49;5.80;1.00
12845;DHT22;68700;48.534;9.196;2024-03-25T07:12:11;6.00;1.00
12845;DHT22;68700;48.534;9.196;2024-03-25T07:15:32;6.20;1.00
12845;DHT22;68700;48.534;9.196;2024-03-25T07:18:53;6.20;1.00
12845;DHT22;68700;48.534;9.196;2024-03-25T07:22:14;6.30;1.00
12845;DHT22;68700;48.534;9.196;2024-03-25T07:25:35;6.60;1.00
12845;DHT22;68700;48.534;9.196;2024-03-25T07:28:57;7.00;1.00
12845;DHT22;68700;48.534;9.196;2024-03-25T07:32:18;7.00;1.00
12845;DHT22;68700;48.534;9.196;2024-03-25T07:35:39;6.80;1.00
12845;DHT22;68700;48.534;9.196;2024-03-25T07:39:00;7.20;1.00
12845;DHT22;68700;48.534;9.196;2024-03-25T07:42:20;8.10;1.00
12845;DHT22;68700;48.534;9.196;2024-03-25T07:45:43;8.40;1.00
12845;DHT22;68700;48.534;9.196;2024-03-25T07:49:04;8.20;1.00
12845;DHT22;68700;48.534;9.196;2024-03-25T07:52:25;8.80;1.00
12845;DHT22;68700;48.534;9.196;2024-03-25T07:55:46;9.50;1.00
12845;DHT22;68700;48.534;9.196;2024-03-25T07:59:06;9.60;1.00
12845;DHT22;68700;48.534;9.196;2024-03-25T08:02:29;9.80;1.00
12845;DHT22;68700;48.534;9.196;2024-03-25T08:05:50;11.10;99.90
12845;DHT22;68700;48.534;9.196;2024-03-25T08:09:11;11.10;99.90
12845;DHT22;68700;48.534;9.196;2024-03-25T08:12:32;11.00;99.90
12845;DHT22;68700;48.534;9.196;2024-03-25T08:15:52;11.30;99.90
12845;DHT22;68700;48.534;9.196;2024-03-25T08:19:15;12.50;99.90
12845;DHT22;68700;48.534;9.196;2024-03-25T08:22:36;12.20;99.90
12845;DHT22;68700;48.534;9.196;2024-03-25T08:25:56;12.90;99.90
12845;DHT22;68700;48.534;9.196;2024-03-25T08:33:34;14.10;99.90
12845;DHT22;68700;48.534;9.196;2024-03-25T08:36:56;14.10;99.90
12845;DHT22;68700;48.534;9.196;2024-03-25T08:40:17;14.50;99.90
12845;DHT22;68700;48.534;9.196;2024-03-25T08:43:38;12.90;99.90
12845;DHT22;68700;48.534;9.196;2024-03-25T08:46:59;12.70;99.90
12845;DHT22;68700;48.534;9.196;2024-03-25T08:50:20;13.60;99.90
12845;DHT22;68700;48.534;9.196;2024-03-25T08:53:42;14.00;99.90
12845;DHT22;68700;48.534;9.196;2024-03-25T08:57:03;14.30;99.90
12845;DHT22;68700;48.534;9.196;2024-03-25T09:00:24;13.90;99.90
12845;DHT22;68700;48.534;9.196;2024-03-25T09:03:45;14.50;99.90
12845;DHT22;68700;48.534;9.196;2024-03-25T09:07:07;14.90;99.90
12845;DHT22;68700;48.534;9.196;2024-03-25T09:10:29;14.60;99.90
12845;DHT22;68700;48.534;9.196;2024-03-25T09:14:08;15.40;99.90
12845;DHT22;68700;48.534;9.196;2024-03-25T09:17:29;16.30;99.90
12845;DHT22;68700;48.534;9.196;2024-03-25T09:20:50;16.30;99.90
12845;DHT22;68700;48.534;9.196;2024-03-25T09:24:11;16.00;99.90
12845;DHT22;68700;48.534;9.196;2024-03-25T09:27:33;15.30;99.90
12845;DHT22;68700;48.534;9.196;2024-03-25T09:30:54;16.30;99.90
12845;DHT22;68700;48.534;9.196;2024-03-25T09:34:15;17.40;99.90
12845;DHT22;68700;48.534;9.196;2024-03-25T09:37:36;16.80;99.90
12845;DHT22;68700;48.534;9.196;2024-03-25T09:40:58;15.80;99.90
12845;DHT22;68700;48.534;9.196;2024-03-25T09:44:22;16.20;99.90
12845;DHT22;68700;48.534;9.196;2024-03-25T09:47:45;15.30;99.90
12845;DHT22;68700;48.534;9.196;2024-03-25T09:51:07;14.90;99.90
12845;DHT22;68700;48.534;9.196;2024-03-25T09:54:29;15.30;99.90
12845;DHT22;68700;48.534;9.196;2024-03-25T09:57:50;17.80;99.90
12845;DHT22;68700;48.534;9.196;2024-03-25T10:01:14;16.80;99.90
12845;DHT22;68700;48.534;9.196;2024-03-25T10:04:43;18.90;99.90
12845;DHT22;68700;48.534;9.196;2024-03-25T10:08:05;18.20;99.90
12845;DHT22;68700;48.534;9.196;2024-03-25T10:11:26;19.10;99.90
12845;DHT22;68700;48.534;9.196;2024-03-25T10:14:47;19.20;99.90
12845;DHT22;68700;48.534;9.196;2024-03-25T10:18:11;19.30;99.90
12845;DHT22;68700;48.534;9.196;2024-03-25T10:21:32;19.50;99.90
12845;DHT22;68700;48.534;9.196;2024-03-25T10:24:53;19.70;99.90
12845;DHT22;68700;48.534;9.196;2024-03-25T10:28:14;19.40;99.90
12845;DHT22;68700;48.534;9.196;2024-03-25T10:31:35;20.30;99.90
12845;DHT22;68700;48.534;9.196;2024-03-25T10:34:57;20.10;99.90
12845;DHT22;68700;48.534;9.196;2024-03-25T10:38:18;19.80;99.90
12845;DHT22;68700;48.534;9.196;2024-03-25T10:41:40;20.10;99.90
12845;DHT22;68700;48.534;9.196;2024-03-25T10:45:02;16.90;99.90
12845;DHT22;68700;48.534;9.196;2024-03-25T10:48:27;17.60;99.90
12845;DHT22;68700;48.534;9.196;2024-03-25T10:51:50;18.20;99.90
12845;DHT22;68700;48.534;9.196;2024-03-25T10:55:12;18.80;99.90
12845;DHT22;68700;48.534;9.196;2024-03-25T10:58:33;17.90;99.90
12845;DHT22;68700;48.534;9.196;2024-03-25T11:01:54;17.50;99.90
12845;DHT22;68700;48.534;9.196;2024-03-25T11:05:16;17.30;99.90
12845;DHT22;68700;48.534;9.196;2024-03-25T11:08:38;18.70;99.90
12845;DHT22;68700;48.534;9.196;2024-03-25T11:11:59;20.00;99.90
12845;DHT22;68700;48.534;9.196;2024-03-25T11:15:21;19.40;99.90
12845;DHT22;68700;48.534;9.196;2024-03-25T11:18:50;19.50;99.90
12845;DHT22;68700;48.534;9.196;2024-03-25T11:22:11;19.60;99.90
12845;DHT22;68700;48.534;9.196;2024-03-25T11:25:34;20.00;99.90
12845;DHT22;68700;48.534;9.196;2024-03-25T11:28:55;20.80;99.90
12845;DHT22;68700;48.534;9.196;2024-03-25T11:32:16;21.00;99.90
12845;DHT22;68700;48.534;9.196;2024-03-25T11:35:37;20.90;99.90
12845;DHT22;68700;48.534;9.196;2024-03-25T11:42:21;21.20;99.90
12845;DHT22;68700;48.534;9.196;2024-03-25T11:45:42;21.20;99.90
12845;DHT22;68700;48.534;9.196;2024-03-25T11:49:05;21.80;99.90
12845;DHT22;68700;48.534;9.196;2024-03-25T11:52:30;20.20;99.90
12845;DHT22;68700;48.534;9.196;2024-03-25T11:55:51;20.80;99.90
12845;DHT22;68700;48.534;9.196;2024-03-25T11:59:13;20.80;99.90
12845;DHT22;68700;48.534;9.196;2024-03-25T12:02:34;20.10;99.90
12845;DHT22;68700;48.534;9.196;2024-03-25T12:05:55;21.00;99.90
12845;DHT22;68700;48.534;9.196;2024-03-25T12:09:16;19.00;99.90
12845;DHT22;68700;48.534;9.196;2024-03-25T12:13:10;21.10;99.90
12845;DHT22;68700;48.534;9.196;2024-03-25T12:16:32;21.70;99.90
12845;DHT22;68700;48.534;9.196;2024-03-25T12:20:03;20.80;99.90
12845;DHT22;68700;48.534;9.196;2024-03-25T12:23:29;21.60;99.90
12845;DHT22;68700;48.534;9.196;2024-03-25T12:26:50;20.30;99.90
12845;DHT22;68700;48.534;9.196;2024-03-25T12:30:13;20.70;99.90
12845;DHT22;68700;48.534;9.196;2024-03-25T12:33:41;21.20;99.90
12845;DHT22;68700;48.534;9.196;2024-03-25T12:37:03;20.40;99.90
12845;DHT22;68700;48.534;9.196;2024-03-25T12:40:28;20.70;99.90
12845;DHT22;68700;48.534;9.196;2024-03-25T12:43:49;20.80;99.90
12845;DHT22;68700;48.534;9.196;2024-03-25T12:47:11;21.10;99.90
12845;DHT22;68700;48.534;9.196;2024-03-25T12:50:33;21.40;99.90
12845;DHT22;68700;48.534;9.196;2024-03-25T12:53:54;21.60;99.90
12845;DHT22;68700;48.534;9.196;2024-03-25T12:57:15;20.70;99.90
12845;DHT22;68700;48.534;9.196;2024-03-25T13:00:36;20.90;99.90
12845;DHT22;68700;48.534;9.196;2024-03-25T13:03:56;20.20;99.90
12845;DHT22;68700;48.534;9.196;2024-03-25T13:07:19;19.90;99.90
12845;DHT22;68700;48.534;9.196;2024-03-25T13:10:40;20.40;99.90
12845;DHT22;68700;48.534;9.196;2024-03-25T13:14:01;19.50;99.90
12845;DHT22;68700;48.534;9.196;2024-03-25T13:17:23;20.40;99.90
12845;DHT22;68700;48.534;9.196;2024-03-25T13:20:44;19.80;99.90
12845;DHT22;68700;48.534;9.196;2024-03-25T13:24:07;19.10;99.90
12845;DHT22;68700;48.534;9.196;2024-03-25T13:27:28;18.90;99.90
12845;DHT22;68700;48.534;9.196;2024-03-25T13:30:49;20.10;99.90
12845;DHT22;68700;48.534;9.196;2024-03-25T13:34:10;19.30;99.90
12845;DHT22;68700;48.534;9.196;2024-03-25T13:37:31;19.30;99.90
12845;DHT22;68700;48.534;9.196;2024-03-25T13:40:53;20.00;99.90
12845;DHT22;68700;48.534;9.196;2024-03-25T13:44:15;21.20;99.90
12845;DHT22;68700;48.534;9.196;2024-03-25T13:47:36;20.60;99.90
12845;DHT22;68700;48.534;9.196;2024-03-25T13:50:57;19.70;99.90
12845;DHT22;68700;48.534;9.196;2024-03-25T13:54:17;19.50;99.90
12845;DHT22;68700;48.534;9.196;2024-03-25T13:57:40;20.60;99.90
12845;DHT22;68700;48.534;9.196;2024-03-25T14:01:01;21.20;99.90
12845;DHT22;68700;48.534;9.196;2024-03-25T14:04:22;20.40;99.90
12845;DHT22;68700;48.534;9.196;2024-03-25T14:07:42;20.20;99.90
12845;DHT22;68700;48.534;9.196;2024-03-25T14:11:03;20.80;99.90
12845;DHT22;68700;48.534;9.196;2024-03-25T14:14:25;21.00;99.90
12845;DHT22;68700;48.534;9.196;2024-03-25T14:17:46;21.50;99.90
12845;DHT22;68700;48.534;9.196;2024-03-25T14:21:07;22.30;99.90
12845;DHT22;68700;48.534;9.196;2024-03-25T14:24:28;22.10;99.90
12845;DHT22;68700;48.534;9.196;2024-03-25T14:27:49;22.70;99.90
12845;DHT22;68700;48.534;9.196;2024-03-25T14:31:11;22.10;99.90
12845;DHT22;68700;48.534;9.196;2024-03-25T14:34:32;21.60;99.90
12845;DHT22;68700;48.534;9.196;2024-03-25T14:37:53;21.60;99.90
12845;DHT22;68700;48.534;9.196;2024-03-25T14:41:18;20.70;99.90
12845;DHT22;68700;48.534;9.196;2024-03-25T14:44:40;20.40;99.90
12845;DHT22;68700;48.534;9.196;2024-03-25T14:48:02;21.30;99.90
12845;DHT22;68700;48.534;9.196;2024-03-25T14:51:23;21.20;99.90
12845;DHT22;68700;48.534;9.196;2024-03-25T14:54:44;19.80;99.90
12845;DHT22;68700;48.534;9.196;2024-03-25T14:58:05;20.60;99.90
12845;DHT22;68700;48.534;9.196;2024-03-25T15:01:26;20.20;99.90
12845;DHT22;68700;48.534;9.196;2024-03-25T15:04:48;19.40;99.90
12845;DHT22;68700;48.534;9.196;2024-03-25T15:08:09;19.30;99.90
12845;DHT22;68700;48.534;9.196;2024-03-25T15:11:30;19.70;99.90
12845;DHT22;68700;48.534;9.196;2024-03-25T15:14:51;20.90;99.90
12845;DHT22;68700;48.534;9.196;2024-03-25T15:18:12;21.10;99.90
12845;DHT22;68700;48.534;9.196;2024-03-25T15:21:34;19.90;99.90
12845;DHT22;68700;48.534;9.196;2024-03-25T15:24:55;20.20;99.90
12845;DHT22;68700;48.534;9.196;2024-03-25T15:28:16;20.50;99.90
12845;DHT22;68700;48.534;9.196;2024-03-25T15:31:36;19.90;99.90
12845;DHT22;68700;48.534;9.196;2024-03-25T15:34:57;18.50;99.90
12845;DHT22;68700;48.534;9.196;2024-03-25T15:38:20;18.80;99.90
12845;DHT22;68700;48.534;9.196;2024-03-25T15:41:40;19.60;99.90
12845;DHT22;68700;48.534;9.196;2024-03-25T15:45:02;20.30;99.90
12845;DHT22;68700;48.534;9.196;2024-03-25T15:48:23;20.20;99.90
12845;DHT22;68700;48.534;9.196;2024-03-25T15:51:44;20.50;99.90
12845;DHT22;68700;48.534;9.196;2024-03-25T15:55:07;21.00;99.90
12845;DHT22;68700;48.534;9.196;2024-03-25T15:58:27;20.60;99.90
12845;DHT22;68700;48.534;9.196;2024-03-25T16:01:48;19.20;99.90
12845;DHT22;68700;48.534;9.196;2024-03-25T16:05:09;18.20;99.90
12845;DHT22;68700;48.534;9.196;2024-03-25T16:08:30;17.30;99.90
12845;DHT22;68700;48.534;9.196;2024-03-25T16:11:52;17.00;99.90
12845;DHT22;68700;48.534;9.196;2024-03-25T16:15:13;18.40;99.90
12845;DHT22;68700;48.534;9.196;2024-03-25T16:18:34;19.30;99.90
12845;DHT22;68700;48.534;9.196;2024-03-25T16:21:56;19.30;99.90
12845;DHT22;68700;48.534;9.196;2024-03-25T16:25:17;20.00;99.90
12845;DHT22;68700;48.534;9.196;2024-03-25T16:28:39;19.60;99.90
12845;DHT22;68700;48.534;9.196;2024-03-25T16:32:00;18.80;99.90
12845;DHT22;68700;48.534;9.196;2024-03-25T16:35:21;18.20;99.90
12845;DHT22;68700;48.534;9.196;2024-03-25T16:38:42;18.00;99.90
12845;DHT22;68700;48.534;9.196;2024-03-25T16:42:03;18.10;99.90
12845;DHT22;68700;48.534;9.196;2024-03-25T16:45:25;17.20;99.90
12845;DHT22;68700;48.534;9.196;2024-03-25T16:48:46;15.50;99.90
12845;DHT22;68700;48.534;9.196;2024-03-25T16:52:07;14.60;99.90
12845;DHT22;68700;48.534;9.196;2024-03-25T16:55:28;14.20;99.90
12845;DHT22;68700;48.534;9.196;2024-03-25T16:58:49;13.80;99.90
12845;DHT22;68700;48.534;9.196;2024-03-25T17:02:11;13.30;99.90
12845;DHT22;68700;48.534;9.196;2024-03-25T17:05:32;13.10;99.90
12845;DHT22;68700;48.534;9.196;2024-03-25T17:08:53;12.70;99.90
12845;DHT22;68700;48.534;9.196;2024-03-25T17:12:14;12.30;99.90
12845;DHT22;68700;48.534;9.196;2024-03-25T17:15:35;11.90;99.90
12845;DHT22;68700;48.534;9.196;2024-03-25T17:18:57;11.60;99.90
12845;DHT22;68700;48.534;9.196;2024-03-25T17:22:18;11.50;99.90
12845;DHT22;68700;48.534;9.196;2024-03-25T17:25:39;11.30;99.90
12845;DHT22;68700;48.534;9.196;2024-03-25T17:29:00;11.20;99.90
12845;DHT22;68700;48.534;9.196;2024-03-25T17:32:21;11.10;99.90
12845;DHT22;68700;48.534;9.196;2024-03-25T17:35:43;10.90;99.90
12845;DHT22;68700;48.534;9.196;2024-03-25T17:39:04;10.60;99.90
12845;DHT22;68700;48.534;9.196;2024-03-25T17:42:26;10.40;99.90
12845;DHT22;68700;48.534;9.196;2024-03-25T17:45:47;10.30;99.90
12845;DHT22;68700;48.534;9.196;2024-03-25T17:49:08;10.10;99.90
12845;DHT22;68700;48.534;9.196;2024-03-25T17:52:30;9.90;99.90
12845;DHT22;68700;48.534;9.196;2024-03-25T17:55:51;9.80;99.90
12845;DHT22;68700;48.534;9.196;2024-03-25T17:59:12;9.70;99.90
12845;DHT22;68700;48.534;9.196;2024-03-25T18:02:33;9.60;99.90
12845;DHT22;68700;48.534;9.196;2024-03-25T18:05:54;9.40;99.90
12845;DHT22;68700;48.534;9.196;2024-03-25T18:09:16;9.40;99.90
12845;DHT22;68700;48.534;9.196;2024-03-25T18:12:37;9.10;99.90
12845;DHT22;68700;48.534;9.196;2024-03-25T18:15:58;8.90;99.90
12845;DHT22;68700;48.534;9.196;2024-03-25T18:19:19;8.70;99.90
12845;DHT22;68700;48.534;9.196;2024-03-25T18:22:40;8.50;99.90
12845;DHT22;68700;48.534;9.196;2024-03-25T18:26:02;8.40;99.90
12845;DHT22;68700;48.534;9.196;2024-03-25T18:29:23;8.30;99.90
12845;DHT22;68700;48.534;9.196;2024-03-25T18:32:44;8.10;99.90
12845;DHT22;68700;48.534;9.196;2024-03-25T18:36:05;8.00;99.90
12845;DHT22;68700;48.534;9.196;2024-03-25T18:39:26;7.80;99.90
12845;DHT22;68700;48.534;9.196;2024-03-25T18:42:49;7.60;99.90
12845;DHT22;68700;48.534;9.196;2024-03-25T18:46:09;7.70;99.90
12845;DHT22;68700;48.534;9.196;2024-03-25T18:49:30;7.50;99.90
12845;DHT22;68700;48.534;9.196;2024-03-25T18:52:51;7.50;99.90
12845;DHT22;68700;48.534;9.196;2024-03-25T18:56:12;7.30;99.90
12845;DHT22;68700;48.534;9.196;2024-03-25T18:59:34;7.20;99.90
12845;DHT22;68700;48.534;9.196;2024-03-25T19:02:55;7.10;99.90
12845;DHT22;68700;48.534;9.196;2024-03-25T19:06:16;7.00;99.90
12845;DHT22;68700;48.534;9.196;2024-03-25T19:09:37;6.90;99.90
12845;DHT22;68700;48.534;9.196;2024-03-25T19:12:58;6.80;99.90
12845;DHT22;68700;48.534;9.196;2024-03-25T19:16:20;6.70;99.90
12845;DHT22;68700;48.534;9.196;2024-03-25T19:19:41;6.60;99.90
12845;DHT22;68700;48.534;9.196;2024-03-25T19:23:02;6.50;99.90
12845;DHT22;68700;48.534;9.196;2024-03-25T19:26:23;6.50;99.90
12845;DHT22;68700;48.534;9.196;2024-03-25T19:29:44;6.40;99.90
12845;DHT22;68700;48.534;9.196;2024-03-25T19:33:07;6.50;99.90
12845;DHT22;68700;48.534;9.196;2024-03-25T19:36:28;6.50;99.90
12845;DHT22;68700;48.534;9.196;2024-03-25T19:39:49;6.40;99.90
12845;DHT22;68700;48.534;9.196;2024-03-25T19:43:10;6.40;99.90
12845;DHT22;68700;48.534;9.196;2024-03-25T19:46:31;6.20;99.90
12845;DHT22;68700;48.534;9.196;2024-03-25T19:49:53;6.10;99.90
12845;DHT22;68700;48.534;9.196;2024-03-25T19:53:14;6.20;99.90
12845;DHT22;68700;48.534;9.196;2024-03-25T19:56:35;6.10;99.90
12845;DHT22;68700;48.534;9.196;2024-03-25T19:59:56;6.20;99.90
12845;DHT22;68700;48.534;9.196;2024-03-25T20:03:17;6.20;99.90
12845;DHT22;68700;48.534;9.196;2024-03-25T20:06:39;6.10;99.90
12845;DHT22;68700;48.534;9.196;2024-03-25T20:10:00;6.00;99.90
12845;DHT22;68700;48.534;9.196;2024-03-25T20:13:22;5.90;99.90
12845;DHT22;68700;48.534;9.196;2024-03-25T20:16:43;5.80;99.90
12845;DHT22;68700;48.534;9.196;2024-03-25T20:20:05;5.80;99.90
12845;DHT22;68700;48.534;9.196;2024-03-25T20:23:27;5.90;99.90
12845;DHT22;68700;48.534;9.196;2024-03-25T20:26:48;5.80;99.90
12845;DHT22;68700;48.534;9.196;2024-03-25T20:30:10;5.60;99.90
12845;DHT22;68700;48.534;9.196;2024-03-25T20:33:31;5.60;99.90
12845;DHT22;68700;48.534;9.196;2024-03-25T20:36:52;5.50;99.90
12845;DHT22;68700;48.534;9.196;2024-03-25T20:40:14;5.40;99.90
12845;DHT22;68700;48.534;9.196;2024-03-25T20:43:35;5.60;99.90
12845;DHT22;68700;48.534;9.196;2024-03-25T20:46:56;5.60;99.90
12845;DHT22;68700;48.534;9.196;2024-03-25T20:50:17;5.60;99.90
12845;DHT22;68700;48.534;9.196;2024-03-25T20:53:38;5.50;99.90
12845;DHT22;68700;48.534;9.196;2024-03-25T20:57:01;5.40;99.90
12845;DHT22;68700;48.534;9.196;2024-03-25T21:00:22;5.30;99.90
12845;DHT22;68700;48.534;9.196;2024-03-25T21:03:42;5.10;99.90
12845;DHT22;68700;48.534;9.196;2024-03-25T21:07:04;5.10;99.90
12845;DHT22;68700;48.534;9.196;2024-03-25T21:10:24;5.30;99.90
12845;DHT22;68700;48.534;9.196;2024-03-25T21:13:47;5.70;99.90
12845;DHT22;68700;48.534;9.196;2024-03-25T21:17:08;5.70;99.90
12845;DHT22;68700;48.534;9.196;2024-03-25T21:20:28;5.40;99.90
12845;DHT22;68700;48.534;9.196;2024-03-25T21:23:49;5.20;99.90
12845;DHT22;68700;48.534;9.196;2024-03-25T21:27:11;5.00;99.90
12845;DHT22;68700;48.534;9.196;2024-03-25T21:30:33;4.90;99.90
12845;DHT22;68700;48.534;9.196;2024-03-25T21:33:54;4.80;99.90
12845;DHT22;68700;48.534;9.196;2024-03-25T21:37:15;4.80;99.90
12845;DHT22;68700;48.534;9.196;2024-03-25T21:40:36;4.90;99.90